Time;durP1;ratioP1;P1;durP2;ratioP2;P2;SDS_P1;SDS_P2;PMS_P1;PMS_P2;Temp;Humidity;BMP_temperature;BMP_pressure;BME280_temperature;BME280_humidity;BME280_pressure;Samples;Min_cycle;Max_cycle;Signal;HPM_P1;HPM_P2
2022/08/22 00:02:21;;;;;;;10.20;3.95;;;15.80;99.90;;;;;;4936166;29;20114;-76
2022/08/22 00:05:02;;;;;;;6.70;3.45;;;15.90;99.90;;;;;;4936234;29;20056;-76
2022/08/22 00:07:55;;;;;;;9.60;4.28;;;15.90;99.90;;;;;;4936115;29;20475;-76
2022/08/22 00:10:32;;;;;;;8.50;3.55;;;15.80;99.90;;;;;;4935995;29;20513;-76
2022/08/22 00:13:12;;;;;;;6.88;3.78;;;15.90;99.90;;;;;;4936176;29;20051;-77
2022/08/22 00:15:45;;;;;;;6.38;3.55;;;15.90;99.90;;;;;;4936111;29;20048;-76
2022/08/22 00:18:34;;;;;;;8.52;3.17;;;15.90;99.90;;;;;;4936091;29;20044;-76
2022/08/22 00:21:35;;;;;;;8.55;3.60;;;15.90;99.90;;;;;;4935915;29;20035;-76
2022/08/22 00:24:15;;;;;;;6.75;3.90;;;15.90;99.90;;;;;;4918732;29;20067;-77
2022/08/22 00:27:18;;;;;;;6.70;4.00;;;15.90;99.90;;;;;;4918787;29;20052;-77
2022/08/22 00:29:57;;;;;;;7.70;4.10;;;15.90;99.90;;;;;;4916561;29;20142;-76
2022/08/22 00:32:38;;;;;;;10.05;4.60;;;15.90;99.90;;;;;;4936426;29;20202;-76
2022/08/22 00:35:22;;;;;;;9.15;4.10;;;16.00;99.90;;;;;;4936918;29;20484;-76
2022/08/22 00:38:12;;;;;;;6.82;4.00;;;16.00;99.90;;;;;;4939443;29;20068;-76
2022/08/22 00:41:09;;;;;;;7.70;3.95;;;16.00;99.90;;;;;;4939422;29;20054;-76
2022/08/22 00:43:59;;;;;;;11.95;4.10;;;16.00;99.90;;;;;;4939493;29;20043;-76
2022/08/22 00:46:52;;;;;;;6.80;4.32;;;16.00;99.90;;;;;;4939308;29;20055;-77
2022/08/22 00:49:37;;;;;;;;;;;16.00;99.90;;;;;;4922425;29;20098;-76
2022/08/22 00:52:25;;;;;;;9.45;4.43;;;15.90;99.90;;;;;;4939194;29;19945;-77
2022/08/22 00:55:16;;;;;;;10.20;4.28;;;15.90;99.90;;;;;;4938898;29;20126;-77
2022/08/22 00:57:59;;;;;;;11.88;4.30;;;15.90;99.90;;;;;;4939111;29;20082;-77
2022/08/22 01:00:27;;;;;;;8.15;3.97;;;15.80;99.90;;;;;;4939053;29;20053;-77
2022/08/22 01:03:21;;;;;;;13.52;5.25;;;15.90;99.90;;;;;;4938882;29;20056;-77
2022/08/22 01:06:28;;;;;;;8.88;4.20;;;15.80;99.90;;;;;;4938917;29;20080;-77
2022/08/22 01:09:18;;;;;;;10.13;3.90;;;15.80;99.90;;;;;;4938870;29;20106;-76
2022/08/22 01:12:38;;;;;;;5.32;3.70;;;15.80;99.90;;;;;;4921951;29;20051;-76
2022/08/22 01:15:18;;;;;;;9.85;4.03;;;15.80;99.90;;;;;;4846294;29;20474;-76
2022/08/22 01:18:08;;;;;;;10.35;3.80;;;15.80;99.90;;;;;;4930240;29;20058;-76
2022/08/22 01:20:51;;;;;;;8.68;4.00;;;15.80;99.90;;;;;;4938676;29;20130;-76
2022/08/22 01:23:59;;;;;;;8.70;4.00;;;15.70;99.90;;;;;;4921335;29;20138;-76
2022/08/22 01:26:51;;;;;;;10.75;3.38;;;15.70;99.90;;;;;;4861125;29;20549;-76
2022/08/22 01:29:44;;;;;;;7.35;3.80;;;15.70;99.90;;;;;;4919533;29;20121;-76
2022/08/22 01:32:52;;;;;;;8.65;4.22;;;15.70;99.90;;;;;;4921550;29;20055;-77
2022/08/22 01:35:18;;;;;;;8.95;4.38;;;15.70;99.90;;;;;;4921374;29;20056;-77
2022/08/22 01:38:13;;;;;;;8.35;3.78;;;15.60;99.90;;;;;;4938357;29;20046;-76
2022/08/22 01:41:11;;;;;;;7.85;3.55;;;15.60;99.90;;;;;;4938313;29;20060;-76
2022/08/22 01:43:43;;;;;;;6.10;3.63;;;15.60;99.90;;;;;;4921380;29;20130;-76
2022/08/22 01:46:19;;;;;;;5.82;3.38;;;15.60;99.90;;;;;;4937642;29;20570;-76
2022/08/22 01:49:01;;;;;;;7.05;3.80;;;15.60;99.90;;;;;;4938143;29;20094;-76
2022/08/22 01:51:35;;;;;;;10.40;4.20;;;15.60;99.90;;;;;;4938074;29;20039;-76
2022/08/22 01:54:22;;;;;;;8.52;4.10;;;15.50;99.90;;;;;;4938116;29;20059;-76
2022/08/22 01:56:48;;;;;;;7.95;4.38;;;15.50;99.90;;;;;;4938033;29;20126;-76
2022/08/22 01:59:28;;;;;;;10.52;3.88;;;15.40;99.90;;;;;;4937887;29;20130;-76
2022/08/22 02:02:17;;;;;;;7.13;4.22;;;15.40;99.90;;;;;;4937937;29;20058;-76
2022/08/22 02:05:05;;;;;;;7.93;3.70;;;15.40;99.90;;;;;;4937767;29;20039;-77
2022/08/22 02:07:55;;;;;;;7.93;3.88;;;15.30;99.90;;;;;;4937795;29;20119;-76
2022/08/22 02:10:58;;;;;;;8.80;4.25;;;15.30;99.90;;;;;;4937780;29;20056;-76
2022/08/22 02:13:40;;;;;;;9.18;4.38;;;15.20;99.90;;;;;;4937642;29;20052;-76
2022/08/22 02:16:14;;;;;;;8.63;3.97;;;15.20;99.90;;;;;;4920605;29;20099;-77
2022/08/22 02:19:06;;;;;;;7.10;3.72;;;15.20;99.90;;;;;;4937943;29;20405;-77
2022/08/22 02:21:49;;;;;;;6.70;4.07;;;15.10;99.90;;;;;;4937402;29;20047;-76
2022/08/22 02:24:23;;;;;;;7.03;4.03;;;15.10;99.90;;;;;;4917309;29;20066;-77
2022/08/22 02:27:03;;;;;;;8.40;4.10;;;15.10;99.90;;;;;;4918357;29;20071;-77
2022/08/22 02:29:49;;;;;;;7.97;4.30;;;15.00;99.90;;;;;;4918464;29;20048;-77
2022/08/22 02:32:27;;;;;;;6.70;4.57;;;15.00;99.90;;;;;;4917412;29;20047;-76
2022/08/22 02:35:05;;;;;;;11.73;4.30;;;14.90;99.90;;;;;;4918322;29;20141;-77
2022/08/22 02:37:48;;;;;;;8.90;3.83;;;14.90;99.90;;;;;;4917178;29;20063;-76
2022/08/22 02:40:49;;;;;;;8.25;3.60;;;14.90;99.90;;;;;;4916904;29;20080;-77
2022/08/22 02:43:22;;;;;;;4.72;3.03;;;14.80;99.90;;;;;;4891006;29;20093;-77
2022/08/22 02:45:47;;;;;;;;;;;14.80;99.90;;;;;;4917246;29;20488;-77
2022/08/22 02:48:43;;;;;;;7.80;3.83;;;14.80;99.90;;;;;;4918291;29;19923;-77
2022/08/22 02:51:18;;;;;;;10.30;4.00;;;14.80;99.90;;;;;;4916642;29;20136;-77
2022/08/22 02:53:53;;;;;;;8.25;4.05;;;14.70;99.90;;;;;;4916735;29;20090;-77
2022/08/22 02:56:40;;;;;;;8.40;4.05;;;14.70;99.90;;;;;;4916652;29;20056;-77
2022/08/22 02:59:31;;;;;;;6.85;3.85;;;14.70;99.90;;;;;;4916038;29;20123;-77
2022/08/22 03:01:57;;;;;;;9.57;3.42;;;14.70;99.90;;;;;;4916899;29;20051;-77
2022/08/22 03:04:31;;;;;;;11.73;3.47;;;14.60;99.90;;;;;;4916615;29;20052;-77
2022/08/22 03:07:18;;;;;;;5.28;3.28;;;14.60;99.90;;;;;;4918075;29;20054;-76
2022/08/22 03:10:17;;;;;;;6.07;3.20;;;14.60;99.90;;;;;;4916682;29;20508;-76
2022/08/22 03:12:54;;;;;;;7.28;3.50;;;14.60;99.90;;;;;;4917817;29;20515;-76
2022/08/22 03:15:58;;;;;;;6.97;3.13;;;14.50;99.90;;;;;;4917548;29;20493;-77
2022/08/22 03:18:23;;;;;;;;;;;14.50;99.90;;;;;;4859883;29;20113;-77
2022/08/22 03:21:10;;;;;;;4.80;2.50;;;14.50;99.90;;;;;;4902112;29;19923;-77
2022/08/22 03:23:44;;;;;;;5.60;2.63;;;14.50;99.90;;;;;;4916506;29;20056;-77
2022/08/22 03:26:41;;;;;;;5.05;2.63;;;14.40;99.90;;;;;;4936025;29;20059;-76
2022/08/22 03:29:31;;;;;;;6.63;2.72;;;14.50;99.90;;;;;;4888968;29;20067;-76
2022/08/22 03:32:42;;;;;;;5.93;2.90;;;14.40;99.90;;;;;;4919369;29;20086;-76
2022/08/22 03:35:10;;;;;;;5.38;3.08;;;14.40;99.90;;;;;;4901122;29;20134;-76
2022/08/22 03:37:42;;;;;;;4.00;2.70;;;14.40;99.90;;;;;;4919578;29;20079;-76
2022/08/22 03:40:25;;;;;;;4.72;3.05;;;14.40;99.90;;;;;;4919481;29;20051;-76
2022/08/22 03:42:58;;;;;;;6.53;3.15;;;14.30;99.90;;;;;;4919519;29;20130;-76
2022/08/22 03:45:47;;;;;;;4.80;2.97;;;14.30;99.90;;;;;;4919252;29;20083;-76
2022/08/22 03:48:40;;;;;;;6.35;3.33;;;14.30;99.90;;;;;;4919092;29;20709;-76
2022/08/22 03:51:24;;;;;;;;;;;14.40;99.90;;;;;;4919825;29;20050;-76
2022/08/22 03:54:09;;;;;;;4.55;3.05;;;14.40;99.90;;;;;;4919473;29;19922;-77
2022/08/22 03:57:05;;;;;;;5.45;2.80;;;14.40;99.90;;;;;;4936356;29;20051;-77
2022/08/22 03:59:43;;;;;;;5.45;3.10;;;14.30;99.90;;;;;;4936344;29;20083;-76
2022/08/22 04:02:33;;;;;;;4.93;3.28;;;14.30;99.90;;;;;;4936212;29;20051;-77
2022/08/22 04:05:24;;;;;;;6.60;3.30;;;14.30;99.90;;;;;;4936226;29;20051;-76
2022/08/22 04:07:58;;;;;;;5.95;3.38;;;14.30;99.90;;;;;;4936288;29;20051;-76
2022/08/22 04:11:15;;;;;;;5.03;2.90;;;14.30;99.90;;;;;;4920817;29;20052;-76
2022/08/22 04:13:56;;;;;;;5.32;3.63;;;14.30;99.90;;;;;;4881630;29;20436;-76
2022/08/22 04:17:00;;;;;;;7.57;3.25;;;14.20;99.90;;;;;;4922826;29;20044;-76
2022/08/22 04:20:00;;;;;;;6.60;3.85;;;14.20;99.90;;;;;;4922456;29;20496;-77
2022/08/22 04:22:38;;;;;;;8.73;4.18;;;14.20;99.90;;;;;;4922132;29;20488;-77
2022/08/22 04:25:25;;;;;;;7.00;4.03;;;14.20;99.90;;;;;;4938674;29;20099;-77
2022/08/22 04:28:34;;;;;;;7.53;4.00;;;14.20;99.90;;;;;;4938757;29;20051;-77
2022/08/22 04:31:04;;;;;;;6.68;3.70;;;14.20;99.90;;;;;;4938772;29;20131;-76
2022/08/22 04:34:06;;;;;;;8.68;3.67;;;14.20;99.90;;;;;;4922111;29;20043;-77
2022/08/22 04:36:36;;;;;;;6.97;3.53;;;14.20;99.90;;;;;;4939498;29;20039;-76
2022/08/22 04:39:28;;;;;;;6.70;3.65;;;14.20;99.90;;;;;;4922283;29;20395;-77
2022/08/22 04:42:11;;;;;;;6.05;3.22;;;14.10;99.90;;;;;;4918479;29;20094;-76
2022/08/22 04:44:43;;;;;;;7.40;3.28;;;14.10;99.90;;;;;;4922187;29;20079;-76
2022/08/22 04:47:40;;;;;;;5.80;2.95;;;14.10;99.90;;;;;;4938910;29;20404;-77
2022/08/22 04:50:33;;;;;;;5.03;3.15;;;14.10;99.90;;;;;;4922176;29;20058;-76
2022/08/22 04:53:12;;;;;;;5.68;3.30;;;14.10;99.90;;;;;;4938890;29;20189;-76
2022/08/22 04:56:02;;;;;;;5.88;3.42;;;14.10;99.90;;;;;;4939157;29;20063;-77
2022/08/22 04:58:57;;;;;;;7.00;3.22;;;14.10;99.90;;;;;;4939051;29;20052;-77
2022/08/22 05:01:36;;;;;;;4.75;3.08;;;14.10;99.90;;;;;;4938923;29;20123;-76
2022/08/22 05:04:07;;;;;;;6.18;3.50;;;14.10;99.90;;;;;;4938922;29;20106;-76
2022/08/22 05:06:38;;;;;;;5.90;3.13;;;14.10;99.90;;;;;;4938641;29;20122;-77
2022/08/22 05:09:13;;;;;;;8.90;3.55;;;14.10;99.90;;;;;;4938847;29;20086;-77
2022/08/22 05:11:40;;;;;;;6.85;3.58;;;14.10;99.90;;;;;;4938545;29;20508;-77
2022/08/22 05:14:16;;;;;;;6.40;3.03;;;14.20;99.90;;;;;;4921738;29;20126;-77
2022/08/22 05:16:46;;;;;;;5.60;2.70;;;14.20;99.90;;;;;;4921493;29;20035;-77
2022/08/22 05:19:30;;;;;;;4.43;2.70;;;14.20;99.90;;;;;;4938495;29;20056;-77
2022/08/22 05:21:56;;;;;;;7.05;2.90;;;14.30;99.90;;;;;;4920332;29;20083;-77
2022/08/22 05:24:36;;;;;;;6.25;3.40;;;14.30;99.90;;;;;;4918230;29;20056;-77
2022/08/22 05:27:29;;;;;;;6.40;3.65;;;14.40;99.90;;;;;;4918278;29;20056;-77
2022/08/22 05:30:08;;;;;;;6.97;3.25;;;14.50;99.90;;;;;;4913427;29;20048;-77
2022/08/22 05:32:47;;;;;;;8.07;4.40;;;14.60;99.90;;;;;;4918328;29;20496;-77
2022/08/22 05:35:15;;;;;;;10.60;4.03;;;14.80;99.90;;;;;;4918007;29;20123;-77
2022/08/22 05:37:48;;;;;;;4.43;3.20;;;14.90;99.90;;;;;;4919095;29;20531;-77
2022/08/22 05:40:19;;;;;;;8.65;4.18;;;15.00;99.90;;;;;;4917862;29;20047;-77
2022/08/22 05:42:45;;;;;;;9.07;4.35;;;15.10;99.90;;;;;;4918090;29;20064;-77
2022/08/22 05:45:13;;;;;;;7.63;4.80;;;15.40;99.90;;;;;;4919075;29;20107;-77
2022/08/22 05:47:47;;;;;;;8.57;5.00;;;15.60;99.90;;;;;;4917929;29;20591;-77
2022/08/22 05:50:34;;;;;;;6.70;4.03;;;15.70;99.90;;;;;;4917901;29;20095;-77
2022/08/22 05:53:07;;;;;;;7.57;4.70;;;15.80;99.90;;;;;;4917844;29;20613;-77
2022/08/22 05:56:01;;;;;;;8.02;4.80;;;16.00;99.90;;;;;;4917629;29;20084;-76
2022/08/22 05:58:42;;;;;;;10.90;4.72;;;16.30;99.90;;;;;;4917517;29;20048;-76
2022/08/22 06:01:41;;;;;;;9.48;4.57;;;16.50;99.90;;;;;;4918696;29;20047;-77
2022/08/22 06:04:16;;;;;;;10.43;4.95;;;16.60;99.90;;;;;;4917579;29;20118;-76
2022/08/22 06:07:02;;;;;;;18.75;5.97;;;16.90;99.90;;;;;;4918602;29;20059;-77
2022/08/22 06:09:27;;;;;;;8.98;4.70;;;17.20;99.90;;;;;;4904391;29;20067;-77
2022/08/22 06:12:02;;;;;;;8.85;4.40;;;17.20;99.90;;;;;;4918409;29;20044;-77
2022/08/22 06:15:06;;;;;;;9.48;4.15;;;17.30;99.90;;;;;;4918608;29;20119;-77
2022/08/22 06:18:05;;;;;;;9.73;4.45;;;17.40;99.90;;;;;;5078677;23;20526;-77
2022/08/22 06:23:55;;;;;;;15.65;4.15;;;17.70;99.90;;;;;;4920065;29;20052;-77
2022/08/22 06:30:25;;;;;;;9.25;4.05;;;18.10;99.90;;;;;;5069365;23;20086;-76
2022/08/22 06:32:54;;;;;;;8.48;3.45;;;18.30;99.90;;;;;;4919662;29;20043;-76
2022/08/22 06:38:28;;;;;;;8.98;3.33;;;18.60;99.90;;;;;;4937050;29;20051;-76
2022/08/22 06:40:54;;;;;;;8.65;3.13;;;18.70;99.90;;;;;;4936705;29;20051;-76
2022/08/22 06:43:23;;;;;;;9.05;3.00;;;18.80;99.90;;;;;;4919605;29;20461;-76
2022/08/22 06:45:49;;;;;;;9.27;3.22;;;18.80;99.90;;;;;;4919600;29;20048;-76
2022/08/22 06:48:22;;;;;;;9.23;3.00;;;18.80;99.90;;;;;;4936727;29;20066;-77
2022/08/22 06:50:53;;;;;;;11.23;3.47;;;18.80;99.90;;;;;;4936938;29;20043;-76
2022/08/22 06:53:34;;;;;;;8.00;3.00;;;18.90;99.90;;;;;;4936552;29;20534;-76
2022/08/22 06:56:02;;;;;;;8.02;2.92;;;18.80;99.90;;;;;;4936784;29;20047;-76
2022/08/22 06:58:35;;;;;;;11.70;3.17;;;18.80;99.90;;;;;;4919471;29;20106;-76
2022/08/22 07:01:21;;;;;;;8.18;2.83;;;18.80;99.90;;;;;;4919701;29;20070;-76
2022/08/22 07:03:53;;;;;;;7.78;3.20;;;18.80;99.90;;;;;;4919541;29;20436;-76
2022/08/22 07:06:48;;;;;;;9.00;3.38;;;18.80;99.90;;;;;;4919274;29;20083;-76
2022/08/22 07:09:41;;;;;;;10.38;3.00;;;18.80;99.90;;;;;;4936685;29;20039;-76
2022/08/22 07:12:25;;;;;;;10.10;3.47;;;18.80;99.90;;;;;;4936289;29;20040;-77
2022/08/22 07:15:00;;;;;;;8.05;3.10;;;18.80;99.90;;;;;;4917830;29;20087;-76
2022/08/22 07:17:31;;;;;;;8.93;3.15;;;18.80;99.90;;;;;;4936337;29;20031;-76
2022/08/22 07:20:30;;;;;;;8.20;3.55;;;18.80;99.90;;;;;;4936237;29;20103;-76
2022/08/22 07:23:11;;;;;;;7.57;3.45;;;18.70;99.90;;;;;;4919436;29;20043;-76
2022/08/22 07:26:00;;;;;;;8.60;4.63;;;18.80;99.90;;;;;;4918790;29;20071;-76
2022/08/22 07:28:47;;;;;;;11.15;4.60;;;18.80;99.90;;;;;;4935979;29;20415;-77
2022/08/22 07:31:16;;;;;;;10.50;4.95;;;18.90;99.90;;;;;;4919355;29;20063;-77
2022/08/22 07:33:46;;;;;;;10.43;4.70;;;18.90;99.90;;;;;;4941046;29;20050;-76
2022/08/22 07:36:25;;;;;;;10.07;4.45;;;18.90;99.90;;;;;;4948597;29;20434;-76
2022/08/22 07:39:14;;;;;;;13.05;5.85;;;18.90;99.90;;;;;;4933369;29;20043;-76
2022/08/22 07:41:42;;;;;;;14.38;9.48;;;18.90;99.90;;;;;;4919165;29;20059;-76
2022/08/22 07:44:14;;;;;;;11.80;5.13;;;18.90;99.90;;;;;;4916212;29;20103;-76
2022/08/22 07:46:53;;;;;;;10.77;5.32;;;19.00;99.90;;;;;;4935215;29;20154;-76
2022/08/22 07:49:25;;;;;;;14.50;5.22;;;19.00;99.90;;;;;;4940137;29;20048;-76
2022/08/22 07:51:59;;;;;;;12.98;5.28;;;19.20;99.90;;;;;;4922690;29;20097;-77
2022/08/22 07:54:52;;;;;;;9.25;5.60;;;19.30;99.90;;;;;;4922676;29;20055;-76
2022/08/22 07:57:25;;;;;;;;;;;19.60;99.90;;;;;;4940276;29;20407;-77
2022/08/22 07:59:54;;;;;;;23.80;10.13;;;19.70;99.90;;;;;;4922354;29;19922;-76
2022/08/22 08:02:22;;;;;;;24.98;10.88;;;20.00;99.90;;;;;;4929632;29;20048;-77
2022/08/22 08:04:51;;;;;;;16.45;6.78;;;20.10;99.90;;;;;;4928204;29;20047;-77
2022/08/22 08:07:22;;;;;;;34.72;16.67;;;20.30;99.90;;;;;;4941553;29;20526;-77
2022/08/22 08:10:06;;;;;;;31.42;18.85;;;20.40;99.90;;;;;;4958668;29;20492;-77
2022/08/22 08:12:38;;;;;;;41.83;18.15;;;20.60;99.90;;;;;;4958766;29;20074;-77
2022/08/22 08:15:06;;;;;;;;;;;20.80;99.90;;;;;;4948021;29;20047;-77
2022/08/22 08:17:34;;;;;;;10.25;5.18;;;20.90;99.90;;;;;;4947048;29;19931;-77
2022/08/22 08:20:06;;;;;;;10.25;3.72;;;21.10;99.90;;;;;;4922806;29;20111;-77
2022/08/22 08:22:33;;;;;;;7.35;3.28;;;21.30;99.90;;;;;;4903615;29;20056;-77
2022/08/22 08:25:00;;;;;;;10.13;3.65;;;21.40;99.90;;;;;;4920167;29;20048;-76
2022/08/22 08:30:17;;;;;;;11.23;4.63;;;21.60;99.90;;;;;;4902932;29;20087;-77
2022/08/22 08:32:52;;;;;;;35.20;22.60;;;21.70;99.90;;;;;;4919206;29;20527;-77
2022/08/22 08:35:24;;;;;;;23.15;14.10;;;21.90;99.90;;;;;;4922837;29;20044;-77
2022/08/22 08:37:58;;;;;;;6.60;3.05;;;21.90;99.90;;;;;;4935670;29;20071;-76
2022/08/22 08:40:30;;;;;;;9.00;2.95;;;21.90;99.90;;;;;;4920249;29;20036;-76
2022/08/22 08:46:11;;;;;;;11.43;6.78;;;21.70;99.90;;;;;;4926744;29;20059;-77
2022/08/22 08:48:56;;;;;;;12.75;4.38;;;21.70;99.90;;;;;;4938811;29;20415;-77
2022/08/22 08:51:33;;;;;;;38.80;18.45;;;21.70;99.90;;;;;;4922048;29;20488;-77
2022/08/22 08:54:23;;;;;;;13.70;4.38;;;21.80;99.90;;;;;;4939098;29;20131;-76
2022/08/22 08:56:58;;;;;;;18.40;7.25;;;21.80;99.90;;;;;;4938824;29;20044;-76
2022/08/22 08:59:59;;;;;;;9.75;3.10;;;21.70;99.90;;;;;;4921636;29;20047;-77
2022/08/22 09:03:04;;;;;;;11.23;4.03;;;21.80;99.90;;;;;;4938504;29;20427;-77
2022/08/22 09:05:48;;;;;;;9.73;4.13;;;22.00;99.90;;;;;;4947641;29;20050;-77
2022/08/22 09:08:26;;;;;;;19.00;5.88;;;22.00;99.90;;;;;;4957921;29;20163;-76
2022/08/22 09:11:29;;;;;;;22.35;8.88;;;22.10;99.90;;;;;;4940555;29;20395;-77
2022/08/22 09:13:55;;;;;;;12.98;4.22;;;22.10;99.90;;;;;;4924440;29;20380;-76
2022/08/22 09:16:42;;;;;;;10.48;5.30;;;22.00;99.90;;;;;;4933255;29;20074;-77
2022/08/22 09:19:26;;;;;;;19.40;6.90;;;22.00;99.90;;;;;;4939733;29;20470;-79
2022/08/22 09:22:16;;;;;;;9.60;3.40;;;21.90;99.90;;;;;;4955939;29;20051;-76
2022/08/22 09:24:58;;;;;;;8.68;3.55;;;21.80;99.90;;;;;;4955779;29;20051;-77
2022/08/22 09:27:37;;;;;;;12.30;5.22;;;22.00;99.90;;;;;;4957544;29;20047;-77
2022/08/22 09:30:09;;;;;;;7.68;2.78;;;22.30;99.90;;;;;;4957021;29;20079;-76
2022/08/22 09:32:53;;;;;;;9.85;2.97;;;22.40;99.90;;;;;;4949386;29;20134;-76
2022/08/22 09:35:45;;;;;;;7.72;2.50;;;22.50;99.90;;;;;;4955515;29;20491;-76
2022/08/22 09:38:29;;;;;;;6.13;2.80;;;22.40;99.90;;;;;;4915339;29;20051;-76
2022/08/22 09:41:07;;;;;;;7.50;2.33;;;22.70;99.90;;;;;;4940102;29;20047;-76
2022/08/22 09:43:46;;;;;;;6.40;1.90;;;22.70;99.90;;;;;;4940033;29;20542;-77
2022/08/22 09:46:22;;;;;;;6.47;3.08;;;22.80;99.90;;;;;;4956880;29;20411;-77
2022/08/22 09:49:15;;;;;;;6.18;2.35;;;23.00;99.90;;;;;;4956816;29;20547;-76
2022/08/22 09:52:01;;;;;;;6.30;2.30;;;23.10;99.90;;;;;;4957221;29;20070;-76
2022/08/22 09:54:30;;;;;;;14.00;2.53;;;23.10;99.90;;;;;;4957037;29;20086;-77
2022/08/22 09:57:05;;;;;;;8.23;2.67;;;23.20;99.90;;;;;;4939508;29;20114;-77
2022/08/22 09:59:45;;;;;;;6.43;1.90;;;23.30;99.90;;;;;;4939293;29;20051;-76
2022/08/22 10:02:28;;;;;;;6.18;1.80;;;23.20;99.90;;;;;;4938299;29;20130;-76
2022/08/22 10:05:11;;;;;;;6.43;2.03;;;23.40;99.90;;;;;;4938434;29;20047;-78
2022/08/22 10:08:08;;;;;;;6.13;2.08;;;23.50;99.90;;;;;;4937831;29;20193;-78
2022/08/22 10:10:53;;;;;;;7.95;2.03;;;23.50;99.90;;;;;;4956560;29;20039;-79
2022/08/22 10:14:00;;;;;;;7.15;2.15;;;23.70;99.90;;;;;;4956405;29;20062;-78
2022/08/22 10:16:56;;;;;;;5.90;1.90;;;23.50;99.90;;;;;;4956638;29;20047;-79
2022/08/22 10:19:36;;;;;;;6.20;1.80;;;23.80;99.90;;;;;;4956270;29;20407;-77
2022/08/22 10:22:23;;;;;;;7.82;2.25;;;24.00;99.90;;;;;;4956628;29;20047;-77
2022/08/22 10:24:51;;;;;;;10.25;2.83;;;23.80;99.90;;;;;;4956287;29;20054;-77
2022/08/22 10:27:29;;;;;;;7.90;1.98;;;23.80;99.90;;;;;;4956403;29;20051;-78
2022/08/22 10:30:05;;;;;;;7.75;3.28;;;24.00;99.90;;;;;;4955847;29;20047;-80
2022/08/22 10:32:58;;;;;;;7.00;1.90;;;24.00;99.90;;;;;;4956347;29;20046;-76
2022/08/22 10:35:38;;;;;;;5.63;2.00;;;24.10;99.90;;;;;;4938863;29;20083;-77
2022/08/22 10:38:25;;;;;;;4.97;1.88;;;24.20;99.90;;;;;;4956049;29;20055;-77
2022/08/22 10:41:05;;;;;;;4.70;1.80;;;24.40;99.90;;;;;;4938883;29;20395;-79
2022/08/22 10:43:48;;;;;;;6.45;2.22;;;24.50;99.90;;;;;;4955926;29;20075;-78
2022/08/22 10:46:27;;;;;;;7.78;2.35;;;24.60;99.90;;;;;;4955974;29;20047;-78
2022/08/22 10:49:01;;;;;;;9.52;2.35;;;24.80;99.90;;;;;;4955693;29;20381;-79
2022/08/22 10:51:50;;;;;;;6.38;1.83;;;24.70;99.90;;;;;;4955998;29;20043;-78
2022/08/22 10:54:36;;;;;;;3.97;1.60;;;24.90;99.90;;;;;;4956013;29;20102;-78
2022/08/22 10:57:26;;;;;;;6.38;1.63;;;24.80;99.90;;;;;;4938621;29;20062;-79
2022/08/22 11:00:24;;;;;;;6.00;1.65;;;25.00;99.90;;;;;;4955603;29;20395;-74
2022/08/22 11:03:14;;;;;;;7.20;2.13;;;25.00;99.90;;;;;;4955701;29;20047;-74
2022/08/22 11:05:46;;;;;;;7.15;2.05;;;25.30;99.90;;;;;;4938380;29;20065;-75
2022/08/22 11:08:18;;;;;;;5.47;1.83;;;25.00;99.90;;;;;;4955484;29;20054;-76
2022/08/22 11:11:03;;;;;;;6.43;2.08;;;25.00;99.90;;;;;;4955825;29;20051;-75
2022/08/22 11:13:47;;;;;;;6.43;2.20;;;25.20;99.90;;;;;;4955488;29;20043;-75
2022/08/22 11:16:24;;;;;;;7.32;2.28;;;25.00;99.90;;;;;;4955717;29;20145;-75
2022/08/22 11:19:11;;;;;;;6.38;2.05;;;24.70;99.90;;;;;;4955119;28;20068;-74
2022/08/22 11:21:55;;;;;;;10.35;2.30;;;24.90;99.90;;;;;;4955301;29;20047;-74
2022/08/22 11:24:30;;;;;;;8.23;1.80;;;25.00;99.90;;;;;;4955254;29;20051;-75
2022/08/22 11:27:13;;;;;;;7.93;2.05;;;24.70;99.90;;;;;;4955163;29;20047;-75
2022/08/22 11:30:05;;;;;;;6.00;2.50;;;24.70;99.90;;;;;;4955248;29;20062;-75
2022/08/22 11:32:43;;;;;;;5.30;1.80;;;24.60;99.90;;;;;;4955103;29;20499;-75
2022/08/22 11:35:41;;;;;;;5.53;2.10;;;24.20;99.90;;;;;;4938238;29;20058;-75
2022/08/22 11:38:29;;;;;;;9.30;2.70;;;24.20;99.90;;;;;;4955357;29;20133;-74
2022/08/22 11:41:04;;;;;;;5.72;1.95;;;23.70;99.90;;;;;;4940165;29;20055;-75
2022/08/22 11:43:35;;;;;;;8.32;2.42;;;23.60;99.90;;;;;;4938178;29;20058;-75
2022/08/22 11:46:26;;;;;;;9.40;2.50;;;23.60;99.90;;;;;;4955340;29;20066;-75
2022/08/22 11:49:05;;;;;;;8.80;2.67;;;23.40;99.90;;;;;;4955038;29;20779;-74
2022/08/22 11:52:04;;;;;;;7.70;2.42;;;23.20;99.90;;;;;;4955340;29;20047;-75
2022/08/22 11:54:53;;;;;;;7.80;2.28;;;23.10;99.90;;;;;;4955309;29;20055;-76
2022/08/22 11:57:35;;;;;;;8.63;2.60;;;22.90;99.90;;;;;;4955237;29;20046;-75
2022/08/22 12:00:01;;;;;;;9.68;2.30;;;23.10;99.90;;;;;;4955307;29;20047;-75
2022/08/22 12:02:51;;;;;;;8.68;2.47;;;23.50;99.90;;;;;;4954866;29;20043;-74
2022/08/22 12:05:34;;;;;;;10.27;2.83;;;23.60;99.90;;;;;;4937671;29;20126;-80
2022/08/22 12:08:25;;;;;;;8.23;2.40;;;23.10;99.90;;;;;;4937754;29;20052;-80
2022/08/22 12:10:57;;;;;;;9.27;2.85;;;23.00;99.90;;;;;;4954828;29;20515;-81
2022/08/22 12:13:40;;;;;;;7.75;2.30;;;23.10;99.90;;;;;;4937729;29;20098;-79
2022/08/22 12:16:18;;;;;;;7.57;3.22;;;23.30;99.90;;;;;;4937598;29;20422;-81
2022/08/22 12:19:11;;;;;;;7.18;2.80;;;22.90;99.90;;;;;;4954998;29;20043;-81
2022/08/22 12:22:04;;;;;;;8.02;2.58;;;22.90;99.90;;;;;;4955042;29;20074;-81
2022/08/22 12:24:58;;;;;;;10.50;2.22;;;23.20;99.90;;;;;;4937494;29;20039;-81
2022/08/22 12:27:32;;;;;;;11.02;3.47;;;23.30;99.90;;;;;;4954725;29;20062;-75
2022/08/22 12:30:16;;;;;;;9.43;2.72;;;23.20;99.90;;;;;;4943717;29;20062;-82
2022/08/22 12:32:54;;;;;;;10.80;3.25;;;23.00;99.90;;;;;;4921653;29;20055;-80
2022/08/22 12:35:36;;;;;;;11.30;3.85;;;23.00;99.90;;;;;;4919066;29;20055;-84
2022/08/22 12:38:30;;;;;;;9.73;2.83;;;23.00;99.90;;;;;;4922163;29;20056;-82
2022/08/22 12:41:34;;;;;;;6.78;2.80;;;23.10;99.90;;;;;;4922065;29;20476;-85
2022/08/22 12:44:30;;;;;;;11.95;3.10;;;23.50;99.90;;;;;;4921885;29;20055;-83
2022/08/22 12:47:33;;;;;;;7.88;2.42;;;23.40;99.90;;;;;;4938794;29;20059;-82
2022/08/22 12:50:13;;;;;;;8.23;3.15;;;23.30;99.90;;;;;;4938547;29;20052;-81
2022/08/22 12:52:54;;;;;;;6.00;2.47;;;23.30;99.90;;;;;;4938689;29;20095;-77
2022/08/22 12:55:32;;;;;;;9.65;2.50;;;23.30;99.90;;;;;;4939061;29;20106;-76
2022/08/22 12:58:25;;;;;;;8.45;2.90;;;23.30;99.90;;;;;;4938378;29;20054;-75
2022/08/22 13:00:51;;;;;;;9.70;2.90;;;23.00;99.90;;;;;;4938831;29;20139;-75
2022/08/22 13:03:25;;;;;;;10.50;2.95;;;22.90;99.90;;;;;;4938504;29;20107;-74
2022/08/22 13:05:53;;;;;;;8.57;3.03;;;22.80;99.90;;;;;;4921754;29;20134;-74
2022/08/22 13:08:29;;;;;;;7.25;2.53;;;23.00;99.90;;;;;;4930329;29;20047;-75
2022/08/22 13:11:11;;;;;;;5.78;2.30;;;23.40;99.90;;;;;;4957888;29;20047;-76
2022/08/22 13:13:42;;;;;;;8.13;2.20;;;23.40;99.90;;;;;;4957945;29;20047;-74
2022/08/22 13:16:14;;;;;;;7.57;2.45;;;23.20;99.90;;;;;;4940335;29;20051;-75
2022/08/22 13:19:02;;;;;;;5.72;2.30;;;23.30;99.90;;;;;;4957559;29;20102;-75
2022/08/22 13:21:34;;;;;;;9.90;2.90;;;23.60;99.90;;;;;;4957706;29;20047;-75
2022/08/22 13:24:26;;;;;;;10.25;2.67;;;23.70;99.90;;;;;;4957684;29;20047;-76
2022/08/22 13:26:56;;;;;;;7.97;2.53;;;23.70;99.90;;;;;;4957266;29;20052;-73
2022/08/22 13:29:38;;;;;;;7.95;2.53;;;23.60;99.90;;;;;;4957267;29;20060;-75
2022/08/22 13:32:05;;;;;;;8.07;2.65;;;23.80;99.90;;;;;;4957210;29;20493;-75
2022/08/22 13:34:39;;;;;;;9.25;2.60;;;23.50;99.90;;;;;;4957231;29;20167;-75
2022/08/22 13:37:10;;;;;;;6.95;2.33;;;23.60;99.90;;;;;;4935035;29;20483;-75
2022/08/22 13:39:40;;;;;;;8.15;2.72;;;23.70;99.90;;;;;;4933940;29;20058;-75
2022/08/22 13:42:06;;;;;;;6.50;3.00;;;23.30;99.90;;;;;;4931401;29;20484;-75
2022/08/22 13:44:39;;;;;;;6.53;2.63;;;23.10;99.90;;;;;;4926336;29;20044;-76
2022/08/22 13:47:07;;;;;;;;;;;23.50;99.90;;;;;;4917957;29;20047;-76
2022/08/22 13:49:45;;;;;;;6.88;2.83;;;23.70;99.90;;;;;;4945945;29;19927;-76
2022/08/22 13:52:31;;;;;;;7.13;2.47;;;23.70;99.90;;;;;;4902185;29;20044;-76
2022/08/22 13:55:18;;;;;;;7.95;2.30;;;23.60;99.90;;;;;;4918583;29;20056;-76
2022/08/22 13:58:21;;;;;;;8.13;2.70;;;23.50;99.90;;;;;;4917273;29;20555;-84
2022/08/22 14:01:52;;;;;;;;;;;;;;;;;;;;;
2022/08/22 14:07:03;;;;;;;6.25;2.40;;;24.00;99.90;;;;;;4896905;27;20064;-82
2022/08/22 14:09:54;;;;;;;7.38;2.38;;;24.20;99.90;;;;;;4899687;29;20041;-83
2022/08/22 14:12:25;;;;;;;10.40;3.03;;;24.10;99.90;;;;;;4895139;29;20517;-82
2022/08/22 14:15:00;;;;;;;6.53;2.55;;;24.00;99.90;;;;;;4891135;29;20083;-82
2022/08/22 14:17:59;;;;;;;9.15;2.80;;;23.70;99.90;;;;;;4899098;29;20045;-83
2022/08/22 14:20:28;;;;;;;11.57;2.70;;;23.70;99.90;;;;;;4895200;29;20123;-81
2022/08/22 14:23:00;;;;;;;7.05;2.75;;;23.90;99.90;;;;;;4899466;29;20048;-80
2022/08/22 14:25:32;;;;;;;8.57;2.60;;;23.90;99.90;;;;;;4898789;29;20044;-82